createdAt,value
2018-07-08T00:00:46.296Z,84.14
2018-07-08T00:01:45.908Z,84.23
2018-07-08T00:03:29.607Z,83.76
2018-07-08T00:04:51.632Z,84.05
2018-07-08T00:05:52.323Z,83.76
2018-07-08T00:06:51.877Z,84.05
2018-07-08T00:07:52.446Z,83.53
2018-07-08T00:08:52.207Z,83.43
2018-07-08T00:09:51.641Z,83.14
2018-07-08T00:10:52.269Z,82.76
2018-07-08T00:11:51.980Z,83.18
2018-07-08T00:12:51.634Z,83.14
2018-07-08T00:13:52.106Z,82.86
2018-07-08T00:14:51.627Z,82.48
2018-07-08T00:15:52.319Z,82.57
2018-07-08T00:16:51.980Z,82.48
2018-07-08T00:17:52.704Z,82.48
2018-07-08T00:18:52.404Z,82.67
2018-07-08T00:19:51.870Z,82.67
2018-07-08T00:20:51.410Z,82.29
2018-07-08T00:21:52.102Z,81.62
2018-07-08T00:22:53.108Z,81.52
2018-07-08T00:23:51.959Z,81.71
2018-07-08T00:24:51.720Z,81.33
2018-07-08T00:25:52.233Z,81.14
2018-07-08T00:27:13.287Z,81.04
2018-07-08T00:28:35.258Z,80.76
2018-07-08T00:29:35.656Z,80.38
2018-07-08T00:31:39.448Z,80.19
2018-07-08T00:32:39.892Z,79.90
2018-07-08T00:33:40.344Z,79.52
2018-07-08T00:34:39.865Z,79.23
2018-07-08T00:35:40.410Z,79.14
2018-07-08T00:36:40.078Z,79.23
2018-07-08T00:37:39.643Z,78.85
2018-07-08T00:38:40.447Z,78.43
2018-07-08T00:39:40.272Z,78.14
2018-07-08T00:40:39.952Z,78.14
2018-07-08T00:41:40.318Z,77.76
2018-07-08T00:42:40.293Z,77.76
2018-07-08T00:43:39.952Z,77.86
2018-07-08T00:44:40.433Z,78.05
2018-07-08T00:45:39.928Z,77.57
2018-07-08T00:46:39.860Z,77.38
2018-07-08T00:47:39.645Z,77.38
2018-07-08T00:48:40.026Z,77.00
2018-07-08T00:50:03.060Z,76.90
2018-07-08T00:51:03.839Z,76.42
2018-07-08T00:52:03.392Z,76.33
2018-07-08T00:53:03.949Z,76.42
2018-07-08T00:54:03.554Z,76.42
2018-07-08T00:55:03.952Z,76.14
2018-07-08T00:56:03.267Z,75.85
2018-07-08T00:57:03.911Z,75.66
2018-07-08T00:58:03.534Z,75.47
2018-07-08T00:59:03.093Z,75.37
2018-07-08T01:00:03.805Z,75.09
2018-07-08T01:01:03.581Z,74.90
2018-07-08T01:02:03.264Z,75.09
2018-07-08T01:03:03.883Z,74.80
2018-07-08T01:04:03.247Z,74.90
2018-07-08T01:05:04.125Z,75.37
2018-07-08T01:06:24.939Z,75.18
2018-07-08T01:07:25.330Z,75.47
2018-07-08T01:08:25.023Z,76.23
2018-07-08T01:09:25.518Z,76.04
2018-07-08T01:10:25.135Z,75.47
2018-07-08T01:11:25.716Z,75.09
2018-07-08T01:12:46.569Z,74.42
2018-07-08T01:13:46.957Z,74.23
2018-07-08T01:14:46.932Z,73.66
2018-07-08T01:15:48.146Z,73.94
2018-07-08T01:16:46.582Z,74.04
2018-07-08T01:17:47.357Z,73.47
2018-07-08T01:18:46.881Z,73.28
2018-07-08T01:20:08.089Z,72.89
2018-07-08T01:21:08.917Z,72.89
2018-07-08T01:22:08.912Z,72.67
2018-07-08T01:23:09.212Z,72.38
2018-07-08T01:24:07.867Z,72.28
2018-07-08T01:25:53.344Z,72.00
2018-07-08T01:26:54.070Z,72.00
2018-07-08T01:27:53.618Z,71.81
2018-07-08T01:28:54.028Z,71.62
2018-07-08T01:29:53.721Z,71.81
2018-07-08T01:30:53.447Z,72.09
2018-07-08T01:31:54.075Z,71.72
2018-07-08T01:32:53.652Z,71.81
2018-07-08T01:33:54.262Z,71.72
2018-07-08T01:34:53.997Z,71.43
2018-07-08T01:35:53.652Z,71.72
2018-07-08T01:36:53.253Z,71.91
2018-07-08T01:37:53.740Z,72.00
2018-07-08T01:38:53.450Z,72.00
2018-07-08T01:39:53.975Z,71.23
2018-07-08T01:40:53.598Z,71.52
2018-07-08T01:43:23.680Z,73.14
2018-07-08T01:44:24.051Z,74.67
2018-07-08T01:45:24.641Z,74.48
2018-07-08T01:46:24.166Z,74.67
2018-07-08T01:47:24.768Z,73.62
2018-07-08T01:48:24.404Z,72.19
2018-07-08T01:50:06.418Z,71.14
2018-07-08T01:51:06.944Z,70.47
2018-07-08T01:52:27.629Z,70.19
2018-07-08T01:53:28.286Z,70.19
2018-07-08T01:55:10.743Z,70.57
2018-07-08T01:56:11.293Z,70.47
2018-07-08T01:57:10.878Z,69.81
2018-07-08T01:58:11.191Z,69.90
2018-07-08T01:59:10.735Z,69.90
2018-07-08T02:00:11.312Z,69.90
2018-07-08T02:01:32.245Z,70.76
2018-07-08T02:02:32.786Z,71.04
2018-07-08T02:03:33.081Z,70.57
2018-07-08T02:04:54.232Z,71.23
2018-07-08T02:06:37.383Z,70.00
2018-07-08T02:07:37.670Z,69.43
2018-07-08T02:08:38.272Z,69.14
2018-07-08T02:09:59.739Z,68.95
2018-07-08T02:11:00.108Z,68.76
2018-07-08T02:11:59.520Z,69.33
2018-07-08T02:13:21.205Z,69.33
2018-07-08T02:14:43.103Z,68.28
2018-07-08T02:15:43.478Z,68.28
2018-07-08T02:16:43.143Z,68.57
2018-07-08T02:17:43.556Z,69.52
2018-07-08T02:18:43.026Z,71.43
2018-07-08T02:20:04.668Z,74.44
2018-07-08T02:21:05.453Z,76.16
2018-07-08T02:22:06.078Z,75.91
2018-07-08T02:23:04.350Z,76.10
2018-07-08T02:24:04.950Z,77.01
2018-07-08T02:25:04.611Z,78.83
2018-07-08T02:26:04.946Z,78.44
2018-07-08T02:27:04.379Z,77.87
2018-07-08T02:28:05.238Z,76.92
2018-07-08T02:29:04.947Z,74.82
2018-07-08T02:30:05.496Z,74.54
2018-07-08T02:31:05.230Z,74.06
2018-07-08T02:32:04.770Z,72.92
2018-07-08T02:33:05.132Z,72.25
2018-07-08T02:34:04.833Z,72.16
2018-07-08T02:35:04.367Z,71.48
2018-07-08T02:36:04.934Z,71.11
2018-07-08T02:37:05.270Z,71.11
2018-07-08T02:38:04.698Z,70.82
2018-07-08T02:39:28.469Z,70.44
2018-07-08T02:40:29.049Z,70.53
2018-07-08T02:41:50.562Z,70.44
2018-07-08T02:42:50.044Z,69.68
2018-07-08T02:43:50.712Z,69.35
2018-07-08T02:44:50.067Z,69.07
2018-07-08T02:45:50.742Z,68.40
2018-07-08T02:46:50.517Z,68.30
2018-07-08T02:48:11.276Z,68.21
2018-07-08T02:49:11.644Z,68.12
2018-07-08T02:50:12.004Z,68.02
2018-07-08T02:51:11.521Z,67.26
2018-07-08T02:52:33.346Z,66.59
2018-07-08T02:53:39.720Z,66.78
2018-07-08T02:54:40.290Z,66.69
2018-07-08T02:55:34.691Z,66.59
2018-07-08T02:56:35.509Z,66.78
2018-07-08T02:57:34.974Z,66.59
2018-07-08T02:58:34.871Z,66.21
2018-07-08T02:59:34.983Z,66.11
2018-07-08T03:00:34.940Z,65.92
2018-07-08T03:01:35.670Z,65.83
2018-07-08T03:02:35.217Z,65.45
2018-07-08T03:03:35.262Z,65.64
2018-07-08T03:04:36.415Z,65.55
2018-07-08T03:05:35.835Z,65.45
2018-07-08T03:06:34.821Z,65.36
2018-07-08T03:07:59.505Z,65.07
2018-07-08T03:09:01.682Z,65.26
2018-07-08T03:10:00.300Z,65.45
2018-07-08T03:11:00.231Z,65.36
2018-07-08T03:12:00.033Z,65.36
2018-07-08T03:13:00.671Z,65.16
2018-07-08T03:14:00.029Z,65.16
2018-07-08T03:15:00.794Z,64.97
2018-07-08T03:16:00.698Z,65.64
2018-07-08T03:17:00.721Z,66.31
2018-07-08T03:18:01.350Z,68.88
2018-07-08T03:19:02.175Z,69.83
2018-07-08T03:19:59.793Z,71.64
2018-07-08T03:21:00.588Z,72.12
2018-07-08T03:22:00.284Z,72.78
2018-07-08T03:22:59.791Z,73.07
2018-07-08T03:24:00.176Z,72.69
2018-07-08T03:25:22.186Z,73.17
2018-07-08T03:26:22.239Z,74.21
2018-07-08T03:27:45.187Z,76.59
2018-07-08T03:28:46.161Z,77.83
2018-07-08T03:29:45.970Z,79.36
2018-07-08T03:30:46.905Z,79.22
2018-07-08T03:31:46.210Z,78.65
2018-07-08T03:32:45.060Z,78.27
2018-07-08T03:34:07.158Z,76.46
2018-07-08T03:35:07.256Z,75.51
2018-07-08T03:36:28.755Z,74.94
2018-07-08T03:37:51.815Z,75.99
2018-07-08T03:38:53.669Z,75.84
2018-07-08T03:39:52.012Z,76.12
2018-07-08T03:40:51.875Z,75.45
2018-07-08T03:41:51.864Z,75.45
2018-07-08T03:42:52.161Z,74.69
2018-07-08T03:44:37.801Z,74.21
2018-07-08T03:45:38.839Z,72.78
2018-07-08T03:46:37.676Z,72.78
2018-07-08T03:47:38.751Z,72.50
2018-07-08T03:48:38.035Z,72.97
2018-07-08T03:49:38.808Z,73.74
2018-07-08T03:50:38.971Z,74.02
2018-07-08T03:51:38.952Z,74.60
2018-07-08T03:52:38.354Z,74.79
2018-07-08T03:53:39.232Z,74.21
2018-07-08T03:54:38.983Z,74.12
2018-07-08T03:55:38.629Z,73.45
2018-07-08T03:56:39.491Z,72.97
2018-07-08T03:57:39.763Z,73.74
2018-07-08T03:58:39.441Z,74.60
2018-07-08T03:59:39.246Z,74.79
2018-07-08T04:00:39.471Z,74.31
2018-07-08T04:01:38.806Z,75.64
2018-07-08T04:02:38.042Z,76.03
2018-07-08T04:03:39.272Z,75.93
2018-07-08T04:04:39.039Z,75.45
2018-07-08T04:06:00.964Z,75.36
2018-07-08T04:07:01.532Z,74.98
2018-07-08T04:08:22.371Z,74.98
2018-07-08T04:09:22.272Z,74.31
2018-07-08T04:10:21.978Z,74.31
2018-07-08T04:11:24.036Z,74.40
2018-07-08T04:12:22.971Z,72.50
2018-07-08T04:13:22.853Z,72.21
2018-07-08T04:14:23.114Z,72.12
2018-07-08T04:15:43.960Z,70.78
2018-07-08T04:17:06.012Z,71.07
2018-07-08T04:18:28.224Z,69.35
2018-07-08T04:19:28.964Z,69.35
2018-07-08T04:20:28.605Z,69.45
2018-07-08T04:21:35.337Z,70.21
2018-07-08T04:22:28.856Z,71.26
2018-07-08T04:23:28.704Z,71.73
2018-07-08T04:24:28.382Z,71.07
2018-07-08T04:25:27.957Z,70.25
2018-07-08T04:26:28.608Z,69.87
2018-07-08T04:27:28.260Z,69.48
2018-07-08T04:28:28.926Z,69.58
2018-07-08T04:29:28.610Z,69.58
2018-07-08T04:30:49.862Z,68.82
2018-07-08T04:31:50.579Z,67.96
2018-07-08T04:32:49.969Z,68.15
2018-07-08T04:33:50.446Z,68.63
2018-07-08T04:34:49.977Z,68.82
2018-07-08T04:35:50.496Z,68.82
2018-07-08T04:36:50.318Z,68.53
2018-07-08T04:37:49.791Z,68.53
2018-07-08T04:38:50.389Z,68.57
2018-07-08T04:39:49.788Z,68.38
2018-07-08T04:40:50.273Z,67.99
2018-07-08T04:41:49.944Z,68.09
2018-07-08T04:42:50.389Z,67.99
2018-07-08T04:43:49.993Z,67.90
2018-07-08T04:44:50.573Z,67.71
2018-07-08T04:45:50.228Z,67.80
2018-07-08T04:46:49.627Z,67.90
2018-07-08T04:47:50.178Z,67.80
2018-07-08T04:48:49.773Z,68.09
2018-07-08T04:49:50.308Z,68.66
2018-07-08T04:50:49.944Z,68.76
2018-07-08T04:51:51.119Z,69.04
2018-07-08T04:52:49.725Z,69.14
2018-07-08T04:53:50.475Z,69.23
2018-07-08T04:54:50.130Z,69.56
2018-07-08T04:55:50.739Z,69.65
2018-07-08T04:56:50.618Z,69.74
2018-07-08T04:57:50.439Z,70.03
2018-07-08T04:58:49.992Z,70.13
2018-07-08T04:59:50.758Z,70.70
2018-07-08T05:00:50.487Z,70.79
2018-07-08T05:02:11.415Z,70.32
2018-07-08T05:03:12.040Z,71.18
2018-07-08T05:04:11.424Z,71.56
2018-07-08T05:05:33.297Z,71.08
2018-07-08T05:06:34.137Z,71.66
2018-07-08T05:07:33.692Z,71.46
2018-07-08T05:08:33.193Z,72.32
2018-07-08T05:09:33.483Z,72.64
2018-07-08T05:10:34.008Z,72.83
2018-07-08T05:11:54.911Z,73.50
2018-07-08T05:12:55.648Z,74.27
2018-07-08T05:13:55.216Z,74.93
2018-07-08T05:14:54.737Z,75.83
2018-07-08T05:16:16.380Z,76.40
2018-07-08T05:17:38.237Z,77.26
2018-07-08T05:18:38.876Z,78.22
2018-07-08T05:19:38.398Z,78.31
2018-07-08T05:21:00.551Z,79.46
2018-07-08T05:22:01.279Z,79.17
2018-07-08T05:23:00.790Z,79.69
2018-07-08T05:24:01.160Z,81.70
2018-07-08T05:25:00.492Z,81.13
2018-07-08T05:26:01.281Z,81.03
2018-07-08T05:27:00.808Z,82.46
2018-07-08T05:28:01.423Z,82.65
2018-07-08T05:29:21.974Z,84.19
2018-07-08T05:30:22.836Z,83.65
2018-07-08T05:31:22.282Z,83.94
2018-07-08T05:32:22.903Z,84.61
2018-07-08T05:33:43.743Z,84.70
2018-07-08T05:34:44.285Z,85.09
2018-07-08T05:36:05.441Z,86.23
2018-07-08T05:37:06.274Z,86.52
2018-07-08T05:38:05.862Z,87.04
2018-07-08T05:39:05.360Z,87.33
2018-07-08T05:40:06.009Z,87.90
2018-07-08T05:41:05.689Z,88.09
2018-07-08T05:42:06.290Z,88.86
2018-07-08T05:43:05.911Z,89.43
2018-07-08T05:44:05.587Z,89.53
2018-07-08T05:45:05.378Z,90.67
2018-07-08T05:46:06.004Z,90.48
2018-07-08T05:47:05.684Z,91.11
2018-07-08T05:48:05.422Z,91.58
2018-07-08T05:49:29.419Z,93.02
2018-07-08T05:50:30.147Z,92.40
2018-07-08T05:51:30.845Z,93.83
2018-07-08T05:52:29.278Z,94.79
2018-07-08T05:53:29.809Z,94.60
2018-07-08T05:54:29.420Z,95.22
2018-07-08T05:55:29.850Z,95.41
2018-07-08T05:56:29.317Z,96.66
2018-07-08T05:57:29.926Z,96.84
2018-07-08T05:58:29.314Z,95.84
2018-07-08T05:59:29.763Z,97.76
2018-07-08T06:00:30.264Z,97.47
2018-07-08T06:02:12.955Z,97.95
2018-07-08T06:03:13.536Z,98.19
2018-07-08T06:04:13.021Z,98.67
2018-07-08T06:05:13.731Z,98.19
2018-07-08T06:06:35.046Z,98.48
2018-07-08T06:07:36.039Z,98.72
2018-07-08T06:08:35.492Z,98.62
2018-07-08T06:09:35.134Z,98.53
2018-07-08T06:10:35.606Z,99.20
2018-07-08T06:11:56.485Z,98.43
2018-07-08T06:13:18.753Z,99.15
2018-07-08T06:14:19.359Z,98.58
2018-07-08T06:15:42.368Z,98.38
2018-07-08T06:16:42.769Z,98.53
2018-07-08T06:17:42.309Z,98.34
2018-07-08T06:19:04.629Z,98.05
2018-07-08T06:20:05.565Z,98.14
2018-07-08T06:21:05.306Z,98.05
2018-07-08T06:22:04.779Z,97.96
2018-07-08T06:23:05.532Z,98.00
2018-07-08T06:24:05.216Z,97.71
2018-07-08T06:25:29.396Z,97.52
2018-07-08T06:26:29.979Z,97.47
2018-07-08T06:27:51.308Z,96.61
2018-07-08T06:28:52.103Z,96.22
2018-07-08T06:29:51.483Z,96.08
2018-07-08T06:31:13.431Z,95.31
2018-07-08T06:32:14.089Z,95.26
2018-07-08T06:33:13.736Z,95.45
2018-07-08T06:34:14.337Z,95.84
2018-07-08T06:35:35.372Z,96.37
2018-07-08T06:36:35.846Z,97.19
2018-07-08T06:37:35.402Z,97.24
2018-07-08T06:38:35.895Z,97.24
2018-07-08T06:39:42.627Z,97.14
2018-07-08T06:40:35.359Z,97.19
2018-07-08T06:41:35.980Z,96.61
2018-07-08T06:42:36.062Z,96.08
2018-07-08T06:43:36.501Z,94.87
2018-07-08T06:44:58.466Z,93.91
2018-07-08T06:45:58.234Z,93.72
2018-07-08T06:46:58.855Z,93.48
2018-07-08T06:47:58.542Z,92.42
2018-07-08T06:49:40.806Z,92.66
2018-07-08T06:50:41.578Z,93.58
2018-07-08T06:52:03.264Z,94.49
2018-07-08T06:53:03.193Z,94.01
2018-07-08T06:54:29.178Z,94.68
2018-07-08T06:55:29.995Z,95.55
2018-07-08T06:56:29.490Z,96.56
2018-07-08T06:57:29.519Z,96.85
2018-07-08T06:58:29.130Z,96.89
2018-07-08T06:59:51.864Z,97.57
2018-07-08T07:00:52.405Z,97.66
2018-07-08T07:01:51.934Z,97.86
2018-07-08T07:02:52.944Z,98.29
2018-07-08T07:03:52.712Z,96.90
2018-07-08T07:04:52.632Z,96.66
2018-07-08T07:05:51.969Z,95.60
2018-07-08T07:06:53.584Z,93.91
2018-07-08T07:07:52.513Z,92.22
2018-07-08T07:08:52.881Z,91.36
2018-07-08T07:09:52.562Z,89.29
2018-07-08T07:10:52.256Z,88.56
2018-07-08T07:12:13.876Z,85.13
2018-07-08T07:13:36.330Z,82.92
2018-07-08T07:14:36.057Z,83.05
2018-07-08T07:15:36.676Z,80.97
2018-07-08T07:16:36.228Z,78.66
2018-07-08T07:17:37.173Z,76.63
2018-07-08T07:18:36.969Z,75.85
2018-07-08T07:19:36.842Z,76.15
2018-07-08T07:20:36.679Z,75.22
2018-07-08T07:21:36.190Z,73.77
2018-07-08T07:22:36.595Z,73.58
2018-07-08T07:23:36.297Z,73.96
2018-07-08T07:24:36.961Z,73.32
2018-07-08T07:25:37.736Z,72.84
2018-07-08T07:26:36.127Z,71.30
2018-07-08T07:27:57.389Z,70.52
2018-07-08T07:28:58.826Z,71.20
2018-07-08T07:29:57.323Z,69.74
2018-07-08T07:30:58.864Z,69.40
2018-07-08T07:31:57.437Z,68.91
2018-07-08T07:32:58.266Z,68.08
2018-07-08T07:34:20.511Z,66.91
2018-07-08T07:35:42.742Z,67.59
2018-07-08T07:36:44.410Z,67.88
2018-07-08T07:37:43.131Z,67.53
2018-07-08T07:38:42.783Z,67.05
2018-07-08T07:40:04.565Z,67.43
2018-07-08T07:41:05.152Z,67.27
2018-07-08T07:42:04.904Z,65.72
2018-07-08T07:43:05.775Z,64.34
2018-07-08T07:44:05.456Z,64.04
2018-07-08T07:45:05.214Z,64.43
2018-07-08T07:46:04.987Z,64.75
2018-07-08T07:47:04.738Z,64.17
2018-07-08T07:48:05.590Z,64.17
2018-07-08T07:49:26.516Z,64.37
2018-07-08T07:50:27.374Z,63.82
2018-07-08T07:51:27.033Z,63.24
2018-07-08T07:52:26.569Z,63.14
2018-07-08T07:53:27.403Z,62.95
2018-07-08T07:54:27.294Z,60.33
2018-07-08T07:55:26.825Z,58.78
2018-07-08T07:56:27.504Z,58.98
2018-07-08T07:57:50.801Z,59.27
2018-07-08T07:58:51.325Z,58.59
2018-07-08T07:59:50.889Z,58.59
2018-07-08T08:00:51.517Z,58.30
2018-07-08T08:01:50.967Z,58.88
2018-07-08T08:02:51.438Z,58.78
2018-07-08T08:03:50.965Z,58.23
2018-07-08T08:04:51.747Z,57.26
2018-07-08T08:05:51.690Z,56.87
2018-07-08T08:06:51.307Z,57.07
2018-07-08T08:07:50.908Z,57.55
2018-07-08T08:08:53.316Z,57.48
2018-07-08T08:09:51.958Z,57.07
2018-07-08T08:10:51.394Z,58.14
2018-07-08T08:11:51.227Z,57.94
2018-07-08T08:12:51.517Z,57.78
2018-07-08T08:13:51.027Z,57.19
2018-07-08T08:14:50.865Z,57.00
2018-07-08T08:15:50.588Z,56.81
2018-07-08T08:16:51.462Z,56.03
2018-07-08T08:17:51.197Z,55.77
2018-07-08T08:18:50.948Z,54.90
2018-07-08T08:19:51.506Z,54.90
2018-07-08T08:20:51.174Z,54.82
2018-07-08T08:21:50.938Z,54.24
2018-07-08T08:22:50.638Z,53.47
2018-07-08T08:23:51.926Z,53.85
2018-07-08T08:24:50.530Z,53.95
2018-07-08T08:25:51.606Z,54.46
2018-07-08T08:26:51.583Z,53.10
2018-07-08T08:28:34.658Z,52.84
2018-07-08T08:29:35.424Z,52.94
2018-07-08T08:30:34.985Z,52.45
2018-07-08T08:31:57.743Z,51.77
2018-07-08T08:32:58.480Z,50.63
2018-07-08T08:33:57.963Z,50.73
2018-07-08T08:34:57.607Z,50.82
2018-07-08T08:35:58.295Z,50.34
2018-07-08T08:36:58.028Z,49.85
2018-07-08T08:37:57.686Z,50.21
2018-07-08T08:38:58.263Z,49.73
2018-07-08T08:39:58.056Z,50.80
2018-07-08T08:40:58.088Z,50.21
2018-07-08T08:41:58.604Z,50.51
2018-07-08T08:42:58.112Z,49.92
2018-07-08T08:43:57.812Z,49.61
2018-07-08T08:44:58.376Z,49.34
2018-07-08T08:45:58.250Z,48.97
2018-07-08T08:46:58.105Z,48.71
2018-07-08T08:47:57.923Z,47.93
2018-07-08T08:48:57.649Z,47.05
2018-07-08T08:49:58.295Z,46.35
2018-07-08T08:50:58.809Z,47.61
2018-07-08T08:51:58.362Z,47.13
2018-07-08T08:52:58.670Z,46.45
2018-07-08T08:53:58.472Z,46.96
2018-07-08T08:54:58.335Z,46.08
2018-07-08T08:55:57.859Z,46.40
2018-07-08T08:56:57.611Z,46.01
2018-07-08T08:57:58.098Z,46.61
2018-07-08T08:58:57.900Z,45.84
2018-07-08T08:59:59.277Z,45.37
2018-07-08T09:01:01.509Z,45.28
2018-07-08T09:01:58.340Z,44.98
2018-07-08T09:02:58.277Z,45.08
2018-07-08T09:03:57.680Z,44.30
2018-07-08T09:04:59.504Z,43.64
2018-07-08T09:05:58.302Z,43.91
2018-07-08T09:06:57.973Z,43.52
2018-07-08T09:07:57.775Z,44.10
2018-07-08T09:08:58.589Z,44.10
2018-07-08T09:09:58.385Z,44.28
2018-07-08T09:10:58.249Z,45.64
2018-07-08T09:11:57.923Z,45.64
2018-07-08T09:12:57.719Z,45.06
2018-07-08T09:13:58.577Z,45.54
2018-07-08T09:14:58.789Z,44.49
2018-07-08T09:15:58.633Z,44.48
2018-07-08T09:16:58.474Z,44.01
2018-07-08T09:17:58.522Z,43.04
2018-07-08T09:18:58.302Z,44.38
2018-07-08T09:19:58.131Z,45.18
2018-07-08T09:20:58.214Z,45.10
2018-07-08T09:21:58.033Z,44.34
2018-07-08T09:22:58.030Z,42.80
2018-07-08T09:23:58.053Z,42.90
2018-07-08T09:24:58.918Z,42.30
2018-07-08T09:26:21.211Z,42.02
2018-07-08T09:27:22.089Z,42.80
2018-07-08T09:28:20.976Z,41.73
2018-07-08T09:29:20.956Z,41.95
2018-07-08T09:30:20.731Z,41.93
2018-07-08T09:31:21.237Z,42.12
2018-07-08T09:33:04.312Z,43.12
2018-07-08T09:34:05.063Z,43.51
2018-07-08T09:35:04.803Z,42.34
2018-07-08T09:36:04.709Z,42.14
2018-07-08T09:37:25.935Z,42.24
2018-07-08T09:38:26.842Z,42.55
2018-07-08T09:39:26.753Z,41.99
2018-07-08T09:40:26.635Z,41.50
2018-07-08T09:41:27.027Z,42.40
2018-07-08T09:42:27.776Z,41.23
2018-07-08T09:44:09.224Z,41.27
2018-07-08T09:45:09.888Z,41.77
2018-07-08T09:46:09.569Z,42.26
2018-07-08T09:47:32.088Z,41.87
2018-07-08T09:48:33.579Z,41.21
2018-07-08T09:50:16.089Z,40.14
2018-07-08T09:52:00.104Z,40.80
2018-07-08T09:53:00.880Z,40.43
2018-07-08T09:54:00.678Z,40.14
2018-07-08T09:55:00.470Z,41.44
2018-07-08T09:56:22.257Z,39.86
2018-07-08T09:57:22.745Z,40.14
2018-07-08T09:58:22.352Z,40.63
2018-07-08T09:59:22.765Z,40.82
2018-07-08T10:00:22.762Z,40.47
2018-07-08T10:01:22.511Z,40.25
2018-07-08T10:02:22.117Z,41.05
2018-07-08T10:03:22.815Z,39.51
2018-07-08T10:04:22.532Z,39.23
2018-07-08T10:05:22.322Z,39.82
2018-07-08T10:06:21.945Z,39.76
2018-07-08T10:07:22.886Z,38.98
2018-07-08T10:08:44.073Z,38.28
2018-07-08T10:09:44.195Z,38.39
2018-07-08T10:10:43.654Z,37.61
2018-07-08T10:11:44.384Z,38.39
2018-07-08T10:12:44.452Z,37.90
2018-07-08T10:13:44.773Z,37.81
2018-07-08T10:14:44.313Z,37.90
2018-07-08T10:16:05.886Z,37.92
2018-07-08T10:17:05.432Z,37.04
2018-07-08T10:18:06.350Z,37.65
2018-07-08T10:19:06.466Z,37.29
2018-07-08T10:20:06.431Z,37.88
2018-07-08T10:21:07.253Z,38.08
2018-07-08T10:22:05.784Z,38.08
2018-07-08T10:23:05.465Z,38.84
2018-07-08T10:24:06.289Z,38.65
2018-07-08T10:25:06.200Z,38.65
2018-07-08T10:26:05.910Z,37.96
2018-07-08T10:27:05.625Z,38.42
2018-07-08T10:28:05.325Z,39.41
2018-07-08T10:29:28.565Z,39.04
2018-07-08T10:30:28.507Z,38.57
2018-07-08T10:31:28.246Z,38.28
2018-07-08T10:32:27.683Z,38.16
2018-07-08T10:33:28.632Z,37.65
2018-07-08T10:34:28.645Z,38.73
2018-07-08T10:35:29.122Z,38.42
2018-07-08T10:37:11.974Z,38.90
2018-07-08T10:38:11.640Z,39.29
2018-07-08T10:39:11.417Z,38.92
2018-07-08T10:40:33.766Z,38.43
2018-07-08T10:41:35.454Z,38.45
2018-07-08T10:42:34.027Z,37.49
2018-07-08T10:43:34.025Z,37.10
2018-07-08T10:44:33.715Z,37.29
2018-07-08T10:45:34.339Z,37.02
2018-07-08T10:46:33.839Z,37.61
2018-07-08T10:47:34.738Z,37.02
2018-07-08T10:48:34.486Z,37.71
2018-07-08T10:49:34.163Z,36.86
2018-07-08T10:50:55.504Z,36.47
2018-07-08T10:51:56.186Z,36.53
2018-07-08T10:52:55.890Z,37.61
2018-07-08T10:53:55.648Z,37.04
2018-07-08T10:54:55.384Z,36.37
2018-07-08T10:55:56.082Z,35.31
2018-07-08T10:57:17.360Z,35.52
2018-07-08T10:58:19.063Z,34.52
2018-07-08T10:59:17.790Z,35.02
2018-07-08T11:00:17.621Z,34.52
2018-07-08T11:01:20.105Z,35.33
2018-07-08T11:02:17.667Z,33.95
2018-07-08T11:03:17.547Z,34.93
2018-07-08T11:04:18.181Z,34.15
2018-07-08T11:05:17.989Z,34.74
2018-07-08T11:06:17.632Z,34.74
2018-07-08T11:07:18.349Z,34.81
2018-07-08T11:08:18.632Z,35.89
2018-07-08T11:09:18.194Z,35.03
2018-07-08T11:10:19.117Z,35.33
2018-07-08T11:11:17.998Z,35.21
2018-07-08T11:12:17.957Z,35.21
2018-07-08T11:13:18.469Z,36.19
2018-07-08T11:14:18.012Z,34.72
2018-07-08T11:15:17.972Z,34.93
2018-07-08T11:16:17.978Z,34.56
2018-07-08T11:17:18.841Z,34.58
2018-07-08T11:18:17.731Z,34.87
2018-07-08T11:19:18.480Z,34.47
2018-07-08T11:20:18.413Z,34.26
2018-07-08T11:21:18.865Z,34.64
2018-07-08T11:22:39.391Z,34.75
2018-07-08T11:24:02.161Z,34.18
2018-07-08T11:25:02.897Z,34.58
2018-07-08T11:26:03.486Z,33.70
2018-07-08T11:27:03.011Z,33.61
2018-07-08T11:28:02.932Z,33.69
2018-07-08T11:29:02.820Z,33.87
2018-07-08T11:30:02.824Z,34.26
2018-07-08T11:31:02.620Z,35.08
2018-07-08T11:32:02.292Z,33.31
2018-07-08T11:33:02.283Z,33.41
2018-07-08T11:34:01.947Z,33.31
2018-07-08T11:35:02.860Z,33.00
2018-07-08T11:36:02.656Z,33.91
2018-07-08T11:37:23.991Z,32.14
2018-07-08T11:38:47.061Z,32.82
2018-07-08T11:39:47.660Z,32.92
2018-07-08T11:40:47.642Z,33.02
2018-07-08T11:41:47.391Z,32.64
2018-07-08T11:42:47.028Z,31.84
2018-07-08T11:43:48.000Z,32.24
2018-07-08T11:44:47.990Z,31.48
2018-07-08T11:45:48.641Z,31.87
2018-07-08T11:46:47.313Z,31.76
2018-07-08T11:48:08.335Z,31.95
2018-07-08T11:49:09.095Z,32.05
2018-07-08T11:50:08.843Z,31.46
2018-07-08T11:51:08.815Z,32.17
2018-07-08T11:52:09.011Z,32.46
2018-07-08T11:53:09.376Z,31.57
2018-07-08T11:54:31.989Z,32.07
2018-07-08T11:55:31.989Z,31.29
2018-07-08T11:56:32.016Z,32.17
2018-07-08T11:57:31.722Z,33.51
2018-07-08T11:58:31.532Z,32.74
2018-07-08T11:59:31.858Z,32.72
2018-07-08T12:00:31.581Z,33.62
2018-07-08T12:01:31.261Z,32.93
2018-07-08T12:02:32.578Z,33.12
2018-07-08T12:03:31.324Z,33.03
2018-07-08T12:04:31.350Z,32.72
2018-07-08T12:05:32.244Z,32.81
2018-07-08T12:06:32.314Z,33.00
2018-07-08T12:07:32.175Z,33.10
2018-07-08T12:08:32.540Z,33.20
2018-07-08T12:09:54.267Z,32.72
2018-07-08T12:10:53.294Z,33.59
2018-07-08T12:12:16.009Z,33.43
2018-07-08T12:13:15.849Z,32.64
2018-07-08T12:14:39.433Z,32.26
2018-07-08T12:15:39.508Z,32.24
2018-07-08T12:16:39.567Z,32.23
2018-07-08T12:17:39.616Z,32.72
2018-07-08T12:19:02.648Z,32.82
2018-07-08T12:20:01.700Z,33.51
2018-07-08T12:21:01.661Z,32.24
2018-07-08T12:22:01.814Z,31.97
2018-07-08T12:23:01.751Z,31.85
2018-07-08T12:24:01.624Z,31.92
2018-07-08T12:25:01.391Z,33.38
2018-07-08T12:26:22.845Z,32.97
2018-07-08T12:27:22.946Z,33.44
2018-07-08T12:29:06.246Z,33.84
2018-07-08T12:30:29.245Z,34.34
2018-07-08T12:31:51.893Z,34.03
2018-07-08T12:32:52.019Z,33.84
2018-07-08T12:33:51.920Z,33.65
2018-07-08T12:34:51.906Z,33.18
2018-07-08T12:35:52.903Z,33.08
2018-07-08T12:36:51.901Z,33.49
2018-07-08T12:37:52.069Z,33.43
2018-07-08T12:38:52.187Z,33.03
2018-07-08T12:39:52.270Z,30.97
2018-07-08T12:40:52.456Z,31.23
2018-07-08T12:41:52.418Z,32.21
2018-07-08T12:42:52.234Z,31.63
2018-07-08T12:44:14.871Z,31.79
2018-07-08T12:45:37.362Z,31.99
2018-07-08T12:46:37.651Z,31.79
2018-07-08T12:47:36.480Z,32.40
2018-07-08T12:48:58.436Z,32.01
2018-07-08T12:49:59.432Z,31.53
2018-07-08T12:50:59.116Z,31.05
2018-07-08T12:52:41.633Z,31.85
2018-07-08T12:54:03.413Z,33.05
2018-07-08T12:55:04.659Z,32.36
2018-07-08T12:56:05.240Z,30.88
2018-07-08T12:57:03.925Z,31.57
2018-07-08T12:58:03.909Z,32.97
2018-07-08T12:59:25.453Z,30.79
2018-07-08T13:00:26.397Z,30.59
2018-07-08T13:01:26.142Z,30.49
2018-07-08T13:02:25.986Z,30.28
2018-07-08T13:03:25.814Z,31.16
2018-07-08T13:04:25.399Z,31.43
2018-07-08T13:05:25.828Z,31.61
2018-07-08T13:06:25.636Z,32.09
2018-07-08T13:07:25.622Z,31.81
2018-07-08T13:08:25.217Z,31.63
2018-07-08T13:09:26.010Z,31.73
2018-07-08T13:10:25.678Z,30.55
2018-07-08T13:11:25.717Z,30.35
2018-07-08T13:12:25.578Z,31.94
2018-07-08T13:13:26.261Z,31.45
2018-07-08T13:14:25.963Z,31.36
2018-07-08T13:15:26.063Z,30.68
2018-07-08T13:16:25.869Z,30.97
2018-07-08T13:18:08.484Z,30.68
2018-07-08T13:19:10.258Z,30.17
2018-07-08T13:20:09.208Z,31.05
2018-07-08T13:21:08.733Z,29.76
2018-07-08T13:22:09.433Z,29.94
2018-07-08T13:23:09.294Z,30.21
2018-07-08T13:24:09.248Z,31.40
2018-07-08T13:25:09.383Z,30.02
2018-07-08T13:26:10.988Z,30.24
2018-07-08T13:27:52.078Z,29.63
2018-07-08T13:28:52.534Z,30.93
2018-07-08T13:29:57.523Z,30.84
2018-07-08T13:30:52.132Z,29.94
2018-07-08T13:31:53.259Z,30.14
2018-07-08T13:32:52.097Z,29.45
2018-07-08T13:33:51.897Z,29.94
2018-07-08T13:36:20.748Z,28.97
2018-07-08T13:37:21.289Z,29.16
2018-07-08T13:38:21.632Z,29.63
2018-07-08T13:39:20.553Z,29.83
2018-07-08T13:40:21.361Z,29.43
2018-07-08T13:41:21.504Z,29.80
2018-07-08T13:42:21.174Z,30.19
2018-07-08T13:43:21.115Z,30.60